createdAt,value
2023-01-03T00:00:01.212Z,2.50
2023-01-03T00:00:11.358Z,2.70
2023-01-03T00:00:21.412Z,2.80
2023-01-03T00:00:31.424Z,2.50
2023-01-03T00:00:41.553Z,2.00
2023-01-03T00:00:51.557Z,2.00
2023-01-03T00:01:01.702Z,2.00
2023-01-03T00:01:11.774Z,2.20
2023-01-03T00:01:21.903Z,2.50
2023-01-03T00:01:32.011Z,2.50
2023-01-03T00:01:42.063Z,2.10
2023-01-03T00:01:52.209Z,2.00
2023-01-03T00:02:02.250Z,1.90
2023-01-03T00:02:12.428Z,2.00
2023-01-03T00:02:22.479Z,1.90
2023-01-03T00:02:32.590Z,1.80
2023-01-03T00:02:42.734Z,1.90
2023-01-03T00:02:52.866Z,2.20
2023-01-03T00:03:02.870Z,2.30
2023-01-03T00:03:13.001Z,2.50
2023-01-03T00:03:23.075Z,2.30
2023-01-03T00:03:33.172Z,2.30
2023-01-03T00:03:43.220Z,2.30
2023-01-03T00:03:53.345Z,2.40
2023-01-03T00:04:03.552Z,2.70
2023-01-03T00:04:13.496Z,2.50
2023-01-03T00:04:23.625Z,2.50
2023-01-03T00:04:33.776Z,2.10
2023-01-03T00:04:49.101Z,1.70
2023-01-03T00:04:54.433Z,2.00
2023-01-03T00:05:04.391Z,1.90
2023-01-03T00:05:14.512Z,1.90
2023-01-03T00:05:24.626Z,1.80
2023-01-03T00:05:34.620Z,1.90
2023-01-03T00:05:44.721Z,2.00
2023-01-03T00:05:54.863Z,2.00
2023-01-03T00:06:04.928Z,2.00
2023-01-03T00:06:15.033Z,2.30
2023-01-03T00:06:25.148Z,2.20
2023-01-03T00:06:35.260Z,2.00
2023-01-03T00:06:45.302Z,1.70
2023-01-03T00:06:55.336Z,2.00
2023-01-03T00:07:05.421Z,2.10
2023-01-03T00:07:15.471Z,2.20
2023-01-03T00:07:25.564Z,2.00
2023-01-03T00:07:35.599Z,2.00
2023-01-03T00:07:45.632Z,2.00
2023-01-03T00:07:55.734Z,2.00
2023-01-03T00:08:05.747Z,2.40
2023-01-03T00:08:15.928Z,2.50
2023-01-03T00:08:26.022Z,2.30
2023-01-03T00:08:36.091Z,1.90
2023-01-03T00:08:46.098Z,1.90
2023-01-03T00:08:56.152Z,2.10
2023-01-03T00:09:06.202Z,2.20
2023-01-03T00:09:16.244Z,2.10
2023-01-03T00:09:26.296Z,2.30
2023-01-03T00:09:36.364Z,2.30
2023-01-03T00:09:46.431Z,2.50
2023-01-03T00:09:56.539Z,2.50
2023-01-03T00:10:06.665Z,2.40
2023-01-03T00:10:16.792Z,2.30
2023-01-03T00:10:26.849Z,2.10
2023-01-03T00:10:36.895Z,2.20
2023-01-03T00:10:46.934Z,2.10
2023-01-03T00:10:56.902Z,2.20
2023-01-03T00:11:06.954Z,2.20
2023-01-03T00:11:17.022Z,2.20
2023-01-03T00:11:27.045Z,2.30
2023-01-03T00:11:37.121Z,2.20
2023-01-03T00:11:47.161Z,2.10
2023-01-03T00:11:57.236Z,1.80
2023-01-03T00:12:07.338Z,1.80
2023-01-03T00:12:17.369Z,1.90
2023-01-03T00:12:31.118Z,2.10
2023-01-03T00:12:37.533Z,2.20
2023-01-03T00:12:47.590Z,2.40
2023-01-03T00:12:57.610Z,2.20
2023-01-03T00:13:07.635Z,2.40
2023-01-03T00:13:17.673Z,2.50
2023-01-03T00:13:27.723Z,2.60
2023-01-03T00:13:37.789Z,2.40
2023-01-03T00:13:47.813Z,2.10
2023-01-03T00:13:57.970Z,2.20
2023-01-03T00:14:07.982Z,2.20
2023-01-03T00:14:18.100Z,2.10
2023-01-03T00:14:28.155Z,2.30
2023-01-03T00:14:38.247Z,2.20
2023-01-03T00:14:48.345Z,2.00
2023-01-03T00:14:58.384Z,2.30
2023-01-03T00:15:08.472Z,2.20
2023-01-03T00:15:18.582Z,2.30
2023-01-03T00:15:28.624Z,1.80
2023-01-03T00:15:38.715Z,2.00
2023-01-03T00:15:48.780Z,2.00
2023-01-03T00:15:58.950Z,2.10
2023-01-03T00:16:09.038Z,2.00
2023-01-03T00:16:19.201Z,1.90
2023-01-03T00:16:29.208Z,1.90
2023-01-03T00:16:39.327Z,1.90
2023-01-03T00:16:49.301Z,2.00
2023-01-03T00:16:59.422Z,2.00
2023-01-03T00:17:09.511Z,1.90
2023-01-03T00:17:19.643Z,1.90
2023-01-03T00:17:29.665Z,2.20
2023-01-03T00:17:39.688Z,2.10
2023-01-03T00:17:49.751Z,2.00
2023-01-03T00:17:59.862Z,2.00
2023-01-03T00:18:09.884Z,2.00
2023-01-03T00:18:19.939Z,2.10
2023-01-03T00:18:29.980Z,2.00
2023-01-03T00:18:40.037Z,2.10
2023-01-03T00:18:50.059Z,2.00
2023-01-03T00:19:00.080Z,2.10
2023-01-03T00:19:10.109Z,2.10
2023-01-03T00:19:20.272Z,2.10
2023-01-03T00:19:30.293Z,2.10
2023-01-03T00:19:40.389Z,2.10
2023-01-03T00:19:50.477Z,2.10
2023-01-03T00:20:00.527Z,2.00
2023-01-03T00:20:10.591Z,1.90
2023-01-03T00:20:20.664Z,1.80
2023-01-03T00:20:30.679Z,1.80
2023-01-03T00:20:40.750Z,2.10
2023-01-03T00:20:50.876Z,2.40
2023-01-03T00:21:00.979Z,2.50
2023-01-03T00:21:11.068Z,2.50
2023-01-03T00:21:21.179Z,2.20
2023-01-03T00:21:31.319Z,1.80
2023-01-03T00:21:41.393Z,1.80
2023-01-03T00:21:51.488Z,2.00
2023-01-03T00:22:01.563Z,2.40
2023-01-03T00:22:11.735Z,2.30
2023-01-03T00:22:21.719Z,2.50
2023-01-03T00:22:31.829Z,2.20
2023-01-03T00:22:41.843Z,2.50
2023-01-03T00:22:51.958Z,2.40
2023-01-03T00:23:02.175Z,2.40
2023-01-03T00:23:12.191Z,2.10
2023-01-03T00:23:22.280Z,2.00
2023-01-03T00:23:32.371Z,1.90
2023-01-03T00:23:42.479Z,2.00
2023-01-03T00:23:52.599Z,2.20
2023-01-03T00:24:02.767Z,2.30
2023-01-03T00:24:12.820Z,2.30
2023-01-03T00:24:22.892Z,2.30
2023-01-03T00:24:32.941Z,2.20
2023-01-03T00:24:43.019Z,2.10
2023-01-03T00:24:53.201Z,2.10
2023-01-03T00:25:03.296Z,2.20
2023-01-03T00:25:13.333Z,2.10
2023-01-03T00:25:23.377Z,2.50
2023-01-03T00:25:33.511Z,2.30
2023-01-03T00:25:43.572Z,2.40
2023-01-03T00:25:53.700Z,2.00
2023-01-03T00:26:03.762Z,2.30
2023-01-03T00:26:13.819Z,2.30
2023-01-03T00:26:23.892Z,2.30
2023-01-03T00:26:34.023Z,2.00
2023-01-03T00:26:44.149Z,2.00
2023-01-03T00:26:54.209Z,2.10
2023-01-03T00:27:04.283Z,2.00
2023-01-03T00:27:14.416Z,1.80
2023-01-03T00:27:24.478Z,1.50
2023-01-03T00:27:34.609Z,1.40
2023-01-03T00:27:44.719Z,1.70
2023-01-03T00:27:54.878Z,1.90
2023-01-03T00:28:04.928Z,2.20
2023-01-03T00:28:14.919Z,2.20
2023-01-03T00:28:25.000Z,2.10
2023-01-03T00:28:35.089Z,1.80
2023-01-03T00:28:45.199Z,1.70
2023-01-03T00:28:55.371Z,1.80
2023-01-03T00:29:05.490Z,1.90
2023-01-03T00:29:15.555Z,1.90
2023-01-03T00:29:25.669Z,2.10
2023-01-03T00:29:35.728Z,1.90
2023-01-03T00:29:45.789Z,1.90
2023-01-03T00:29:55.879Z,1.80
2023-01-03T00:30:06.037Z,1.90
2023-01-03T00:30:16.080Z,1.90
2023-01-03T00:30:26.252Z,2.10
2023-01-03T00:30:36.386Z,2.10
2023-01-03T00:30:46.533Z,2.00
2023-01-03T00:30:56.696Z,2.00
2023-01-03T00:31:06.768Z,2.30
2023-01-03T00:31:16.922Z,2.50
2023-01-03T00:31:26.995Z,2.40
2023-01-03T00:31:37.105Z,2.30
2023-01-03T00:31:47.145Z,2.20
2023-01-03T00:31:57.210Z,2.40
2023-01-03T00:32:07.241Z,2.70
2023-01-03T00:32:17.277Z,3.50
2023-01-03T00:32:27.362Z,3.60
2023-01-03T00:32:37.419Z,3.50
2023-01-03T00:32:47.552Z,3.20
2023-01-03T00:32:57.632Z,3.40
2023-01-03T00:33:07.655Z,3.80
2023-01-03T00:33:17.724Z,6.50
2023-01-03T00:33:27.764Z,9.00
2023-01-03T00:33:37.818Z,10.80
2023-01-03T00:33:47.919Z,10.00
2023-01-03T00:33:58.077Z,9.20
2023-01-03T00:34:08.214Z,8.60
2023-01-03T00:34:18.268Z,8.70
2023-01-03T00:34:28.347Z,7.80
2023-01-03T00:34:38.441Z,6.70
2023-01-03T00:34:48.548Z,5.30
2023-01-03T00:35:03.101Z,5.30
2023-01-03T00:35:09.577Z,5.10
2023-01-03T00:35:19.658Z,4.80
2023-01-03T00:35:29.749Z,4.20
2023-01-03T00:35:39.800Z,3.50
2023-01-03T00:35:49.854Z,3.10
2023-01-03T00:35:59.918Z,2.50
2023-01-03T00:36:09.975Z,2.20
2023-01-03T00:36:20.064Z,2.10
2023-01-03T00:36:30.141Z,2.20
2023-01-03T00:36:40.232Z,2.30
2023-01-03T00:36:50.308Z,2.10
2023-01-03T00:37:00.328Z,1.90
2023-01-03T00:37:10.407Z,2.30
2023-01-03T00:37:20.479Z,2.20
2023-01-03T00:37:30.536Z,2.60
2023-01-03T00:37:40.590Z,2.20
2023-01-03T00:37:50.619Z,2.30
2023-01-03T00:38:00.668Z,2.00
2023-01-03T00:38:10.725Z,2.10
2023-01-03T00:38:20.777Z,2.00
2023-01-03T00:38:30.818Z,2.00
2023-01-03T00:38:40.896Z,1.90
2023-01-03T00:38:50.938Z,1.90
2023-01-03T00:39:00.989Z,1.80
2023-01-03T00:39:11.050Z,2.00
2023-01-03T00:39:21.157Z,2.20
2023-01-03T00:39:31.199Z,2.20
2023-01-03T00:39:41.237Z,2.20
2023-01-03T00:39:51.309Z,2.10
2023-01-03T00:40:01.383Z,2.10
2023-01-03T00:40:11.422Z,2.00
2023-01-03T00:40:21.507Z,2.10
2023-01-03T00:40:31.602Z,2.00
2023-01-03T00:40:41.629Z,2.00
2023-01-03T00:40:51.668Z,2.00
2023-01-03T00:41:01.736Z,2.30
2023-01-03T00:41:11.769Z,2.40
2023-01-03T00:41:21.819Z,2.40
2023-01-03T00:41:31.856Z,2.30
2023-01-03T00:41:41.900Z,2.00
2023-01-03T00:41:51.944Z,2.10
2023-01-03T00:42:02.062Z,2.10
2023-01-03T00:42:12.146Z,2.20
2023-01-03T00:42:22.360Z,2.00
2023-01-03T00:42:32.246Z,2.10
2023-01-03T00:42:42.297Z,1.90
2023-01-03T00:42:52.368Z,1.80
2023-01-03T00:43:02.406Z,1.80
2023-01-03T00:43:12.447Z,2.00
2023-01-03T00:43:22.500Z,2.10
2023-01-03T00:43:32.559Z,1.80
2023-01-03T00:43:42.639Z,1.80
2023-01-03T00:43:52.704Z,1.90
2023-01-03T00:44:02.747Z,1.90
2023-01-03T00:44:12.789Z,2.00
2023-01-03T00:44:22.830Z,2.00
2023-01-03T00:44:32.881Z,2.30
2023-01-03T00:44:42.946Z,2.20
2023-01-03T00:44:52.987Z,2.30
2023-01-03T00:45:03.026Z,2.10
2023-01-03T00:45:17.582Z,2.00
2023-01-03T00:45:25.788Z,1.80
2023-01-03T00:45:35.728Z,1.90
2023-01-03T00:45:44.375Z,2.10
2023-01-03T00:45:54.350Z,2.00
2023-01-03T00:46:04.483Z,1.90
2023-01-03T00:46:14.559Z,2.00
2023-01-03T00:46:24.575Z,2.00
2023-01-03T00:46:34.679Z,1.90
2023-01-03T00:46:44.749Z,1.90
2023-01-03T00:46:54.799Z,2.00
2023-01-03T00:47:04.859Z,2.20
2023-01-03T00:47:14.897Z,2.00
2023-01-03T00:47:24.948Z,2.10
2023-01-03T00:47:35.007Z,2.00
2023-01-03T00:47:45.069Z,2.00
2023-01-03T00:47:55.129Z,2.10
2023-01-03T00:48:05.176Z,2.10
2023-01-03T00:48:15.248Z,2.10
2023-01-03T00:48:25.297Z,2.50
2023-01-03T00:48:35.357Z,2.50
2023-01-03T00:48:45.416Z,2.50
2023-01-03T00:48:55.485Z,2.10
2023-01-03T00:49:05.525Z,2.00
2023-01-03T00:49:15.591Z,2.00
2023-01-03T00:49:25.629Z,2.10
2023-01-03T00:49:35.684Z,2.40
2023-01-03T00:49:45.778Z,2.20
2023-01-03T00:49:55.817Z,2.00
2023-01-03T00:50:05.907Z,1.60
2023-01-03T00:50:15.999Z,1.90
2023-01-03T00:50:26.164Z,1.90
2023-01-03T00:50:36.207Z,2.00
2023-01-03T00:50:46.264Z,1.80
2023-01-03T00:50:56.335Z,1.90
2023-01-03T00:51:06.400Z,1.80
2023-01-03T00:51:16.485Z,1.80
2023-01-03T00:51:26.577Z,1.60
2023-01-03T00:51:36.654Z,1.80
2023-01-03T00:51:46.699Z,1.90
2023-01-03T00:51:56.738Z,1.90
2023-01-03T00:52:06.856Z,1.90
2023-01-03T00:52:16.895Z,2.70
2023-01-03T00:52:27.018Z,3.30
2023-01-03T00:52:37.105Z,3.30
2023-01-03T00:52:47.182Z,2.70
2023-01-03T00:52:57.253Z,2.10
2023-01-03T00:53:07.293Z,2.00
2023-01-03T00:53:17.371Z,2.00
2023-01-03T00:53:27.404Z,2.30
2023-01-03T00:53:37.467Z,2.50
2023-01-03T00:53:47.509Z,2.40
2023-01-03T00:53:57.645Z,2.20
2023-01-03T00:54:07.685Z,2.10
2023-01-03T00:54:17.775Z,2.20
2023-01-03T00:54:27.805Z,2.00
2023-01-03T00:54:37.895Z,2.00
2023-01-03T00:54:47.948Z,1.80
2023-01-03T00:54:58.007Z,2.00
2023-01-03T00:55:08.054Z,2.10
2023-01-03T00:55:18.087Z,2.40
2023-01-03T00:55:28.136Z,2.40
2023-01-03T00:55:38.237Z,2.00
2023-01-03T00:55:48.286Z,1.60
2023-01-03T00:55:58.335Z,1.80
2023-01-03T00:56:08.387Z,1.80
2023-01-03T00:56:18.434Z,2.10
2023-01-03T00:56:28.494Z,1.80
2023-01-03T00:56:38.575Z,1.80
2023-01-03T00:56:48.616Z,1.60
2023-01-03T00:56:58.678Z,1.90
2023-01-03T00:57:08.729Z,2.00
2023-01-03T00:57:18.765Z,1.90
2023-01-03T00:57:28.852Z,1.70
2023-01-03T00:57:38.887Z,1.70
2023-01-03T00:57:48.939Z,1.80
2023-01-03T00:57:58.999Z,2.20
2023-01-03T00:58:09.057Z,2.10
2023-01-03T00:58:19.102Z,2.10
2023-01-03T00:58:29.136Z,1.90
2023-01-03T00:58:39.218Z,1.80
2023-01-03T00:58:49.255Z,1.70
2023-01-03T00:58:59.353Z,1.60
2023-01-03T00:59:09.365Z,1.90
2023-01-03T00:59:19.412Z,1.90
2023-01-03T00:59:29.449Z,1.90
2023-01-03T00:59:39.525Z,1.80
2023-01-03T00:59:49.605Z,2.10
2023-01-03T00:59:59.645Z,2.10
2023-01-03T01:00:09.734Z,2.10
2023-01-03T01:00:19.848Z,2.00
2023-01-03T01:00:29.888Z,1.90
2023-01-03T01:00:39.922Z,2.00
2023-01-03T01:00:49.967Z,2.00
2023-01-03T01:01:00.101Z,2.20
2023-01-03T01:01:10.187Z,2.10
2023-01-03T01:01:20.195Z,2.00
2023-01-03T01:01:30.260Z,1.80
2023-01-03T01:01:46.653Z,1.70
2023-01-03T01:01:51.320Z,1.60
2023-01-03T01:02:01.559Z,2.00
2023-01-03T01:02:11.732Z,2.10
2023-01-03T01:02:21.828Z,2.20
2023-01-03T01:02:31.926Z,1.60
2023-01-03T01:02:42.054Z,2.00
2023-01-03T01:02:52.115Z,2.00
2023-01-03T01:03:02.026Z,2.40
2023-01-03T01:03:12.129Z,2.20
2023-01-03T01:03:22.108Z,2.20
2023-01-03T01:03:32.245Z,2.10
2023-01-03T01:03:42.255Z,2.00
2023-01-03T01:03:52.431Z,1.90
2023-01-03T01:04:02.526Z,1.80
2023-01-03T01:04:12.571Z,1.90
2023-01-03T01:04:22.635Z,2.20
2023-01-03T01:04:32.705Z,2.20
2023-01-03T01:04:42.768Z,1.90
2023-01-03T01:04:52.795Z,1.60
2023-01-03T01:05:02.917Z,1.50
2023-01-03T01:05:12.969Z,1.50
2023-01-03T01:05:23.015Z,1.40
2023-01-03T01:05:33.084Z,1.70
2023-01-03T01:05:43.135Z,1.80
2023-01-03T01:05:53.232Z,2.10
2023-01-03T01:06:03.355Z,2.20
2023-01-03T01:06:13.471Z,2.20
2023-01-03T01:06:23.513Z,2.10
2023-01-03T01:06:33.601Z,2.10
2023-01-03T01:06:43.675Z,2.10
2023-01-03T01:06:53.705Z,2.10
2023-01-03T01:07:03.813Z,2.10
2023-01-03T01:07:13.843Z,2.10
2023-01-03T01:07:23.990Z,2.30
2023-01-03T01:07:34.059Z,2.50
2023-01-03T01:07:44.129Z,2.60
2023-01-03T01:07:54.164Z,2.50
2023-01-03T01:08:04.204Z,2.20
2023-01-03T01:08:14.246Z,2.10
2023-01-03T01:08:24.304Z,2.10
2023-01-03T01:08:34.337Z,2.10
2023-01-03T01:08:44.393Z,2.00
2023-01-03T01:08:54.457Z,1.80
2023-01-03T01:09:04.505Z,1.80
2023-01-03T01:09:14.538Z,2.10
2023-01-03T01:09:24.585Z,2.20
2023-01-03T01:09:34.630Z,2.40
2023-01-03T01:09:44.677Z,2.20
2023-01-03T01:09:54.715Z,2.10
2023-01-03T01:10:04.767Z,2.20
2023-01-03T01:10:14.813Z,2.30
2023-01-03T01:10:24.921Z,2.30
2023-01-03T01:10:34.974Z,2.30
2023-01-03T01:10:45.024Z,2.30
2023-01-03T01:10:55.065Z,2.20
2023-01-03T01:11:05.165Z,2.10
2023-01-03T01:11:15.285Z,2.10
2023-01-03T01:11:25.320Z,2.10
2023-01-03T01:11:35.415Z,2.00
2023-01-03T01:11:45.532Z,1.70
2023-01-03T01:11:55.588Z,1.90
2023-01-03T01:12:05.645Z,1.90
2023-01-03T01:12:15.754Z,2.00
2023-01-03T01:12:25.831Z,2.00
2023-01-03T01:12:35.947Z,1.90
2023-01-03T01:12:45.973Z,1.70
2023-01-03T01:12:56.067Z,1.70
2023-01-03T01:13:06.095Z,1.70
2023-01-03T01:13:16.133Z,1.90
2023-01-03T01:13:26.177Z,1.90
2023-01-03T01:13:36.223Z,1.90
2023-01-03T01:13:46.277Z,1.90
2023-01-03T01:13:56.339Z,1.80
2023-01-03T01:14:06.457Z,1.80
2023-01-03T01:14:16.504Z,1.70
2023-01-03T01:14:26.641Z,1.80
2023-01-03T01:14:36.668Z,1.70
2023-01-03T01:14:46.705Z,1.70
2023-01-03T01:14:56.793Z,1.70
2023-01-03T01:15:06.886Z,1.80
2023-01-03T01:15:16.922Z,1.80
2023-01-03T01:15:27.058Z,1.90
2023-01-03T01:15:37.135Z,1.80
2023-01-03T01:15:47.247Z,1.80
2023-01-03T01:15:57.340Z,1.90
2023-01-03T01:16:07.385Z,1.70
2023-01-03T01:16:17.528Z,1.60
2023-01-03T01:16:27.745Z,1.40
2023-01-03T01:16:37.654Z,1.60
2023-01-03T01:16:47.707Z,2.00
2023-01-03T01:16:57.856Z,2.00
2023-01-03T01:17:07.996Z,2.00
2023-01-03T01:17:22.604Z,1.80
2023-01-03T01:17:29.006Z,2.10
2023-01-03T01:17:39.123Z,2.00
2023-01-03T01:17:49.163Z,1.90
2023-01-03T01:17:59.204Z,1.70
2023-01-03T01:18:09.261Z,1.80
2023-01-03T01:18:19.315Z,1.80
2023-01-03T01:18:29.344Z,1.80
2023-01-03T01:18:39.373Z,1.50
2023-01-03T01:18:49.413Z,1.60
2023-01-03T01:18:59.481Z,1.60
2023-01-03T01:19:09.553Z,2.00
2023-01-03T01:19:19.552Z,1.90
2023-01-03T01:19:29.631Z,2.00
2023-01-03T01:19:39.635Z,2.00
2023-01-03T01:19:49.639Z,2.10
2023-01-03T01:19:59.735Z,1.90
2023-01-03T01:20:09.753Z,1.70
2023-01-03T01:20:19.794Z,1.30
2023-01-03T01:20:29.889Z,1.50
2023-01-03T01:20:39.905Z,1.90
2023-01-03T01:20:49.944Z,2.20
2023-01-03T01:21:00.040Z,2.20
2023-01-03T01:21:10.055Z,2.10
2023-01-03T01:21:20.071Z,2.10
2023-01-03T01:21:30.114Z,1.90
2023-01-03T01:21:40.145Z,1.90
2023-01-03T01:21:50.192Z,1.90
2023-01-03T01:22:00.247Z,1.90
2023-01-03T01:22:10.278Z,1.80
2023-01-03T01:22:20.372Z,2.00
2023-01-03T01:22:30.384Z,2.30
2023-01-03T01:22:40.442Z,2.40
2023-01-03T01:22:50.475Z,2.60
2023-01-03T01:23:00.469Z,2.50
2023-01-03T01:23:10.647Z,2.70
2023-01-03T01:23:20.655Z,2.70
2023-01-03T01:23:30.684Z,2.70
2023-01-03T01:23:40.711Z,2.80
2023-01-03T01:23:50.793Z,2.50
2023-01-03T01:24:00.771Z,2.30
2023-01-03T01:24:15.937Z,2.00
2023-01-03T01:24:21.762Z,2.10
2023-01-03T01:24:31.785Z,1.80
2023-01-03T01:24:41.827Z,1.70
2023-01-03T01:24:51.829Z,2.00
2023-01-03T01:25:01.876Z,2.00
2023-01-03T01:25:11.861Z,2.10
2023-01-03T01:25:21.879Z,1.70
2023-01-03T01:25:31.950Z,1.80
2023-01-03T01:25:41.931Z,1.70
2023-01-03T01:25:51.949Z,1.80
2023-01-03T01:26:02.125Z,1.70
2023-01-03T01:26:12.143Z,1.60
2023-01-03T01:26:22.153Z,1.70
2023-01-03T01:26:32.151Z,1.70
2023-01-03T01:26:42.167Z,1.70
2023-01-03T01:26:52.220Z,1.60
2023-01-03T01:27:02.259Z,1.70
2023-01-03T01:27:12.254Z,1.90
2023-01-03T01:27:22.261Z,1.90
2023-01-03T01:27:32.282Z,2.00
2023-01-03T01:27:42.314Z,2.00
2023-01-03T01:27:52.360Z,2.10
2023-01-03T01:28:02.412Z,2.10
2023-01-03T01:28:12.402Z,2.10
2023-01-03T01:28:22.522Z,2.00
2023-01-03T01:28:32.540Z,2.10
2023-01-03T01:28:42.543Z,1.90
2023-01-03T01:28:52.583Z,1.80
2023-01-03T01:29:02.649Z,1.60
2023-01-03T01:29:12.674Z,1.70
2023-01-03T01:29:22.684Z,1.80
2023-01-03T01:29:32.700Z,1.90
2023-01-03T01:29:42.754Z,1.90
2023-01-03T01:29:52.751Z,1.90
2023-01-03T01:30:02.934Z,1.80
2023-01-03T01:30:12.980Z,1.70
2023-01-03T01:30:23.068Z,1.70
2023-01-03T01:30:33.144Z,1.80
2023-01-03T01:30:43.257Z,1.80
2023-01-03T01:30:53.419Z,1.70
2023-01-03T01:31:03.570Z,1.60
2023-01-03T01:31:13.642Z,1.60
2023-01-03T01:31:23.797Z,1.60
2023-01-03T01:31:33.746Z,1.70
2023-01-03T01:31:43.785Z,1.90
2023-01-03T01:31:53.804Z,1.90
2023-01-03T01:32:03.949Z,2.00
2023-01-03T01:32:13.990Z,1.70
2023-01-03T01:32:24.022Z,1.70
2023-01-03T01:32:34.081Z,1.80
2023-01-03T01:32:44.131Z,1.80
2023-01-03T01:32:54.190Z,2.00
2023-01-03T01:33:04.250Z,1.80
2023-01-03T01:33:14.280Z,2.00
2023-01-03T01:33:24.331Z,1.80
2023-01-03T01:33:34.431Z,1.80
2023-01-03T01:33:44.517Z,1.60
2023-01-03T01:33:54.577Z,1.70
2023-01-03T01:34:04.621Z,1.80
2023-01-03T01:34:14.710Z,1.80
2023-01-03T01:34:24.771Z,1.60
2023-01-03T01:34:34.861Z,1.50
2023-01-03T01:34:44.903Z,1.40
2023-01-03T01:34:54.936Z,1.40
2023-01-03T01:35:05.039Z,1.50
2023-01-03T01:35:15.105Z,1.60
2023-01-03T01:35:25.140Z,1.70
2023-01-03T01:35:35.184Z,1.70
2023-01-03T01:35:45.247Z,1.80
2023-01-03T01:35:55.263Z,1.80
2023-01-03T01:36:05.362Z,1.90
2023-01-03T01:36:15.433Z,1.70
2023-01-03T01:36:25.499Z,1.80
2023-01-03T01:36:35.590Z,1.70
2023-01-03T01:36:45.654Z,2.00
2023-01-03T01:36:55.728Z,1.90
2023-01-03T01:37:05.772Z,2.00
2023-01-03T01:37:15.816Z,1.90
2023-01-03T01:37:25.852Z,1.70
2023-01-03T01:37:35.902Z,1.40
2023-01-03T01:37:45.961Z,1.50
2023-01-03T01:37:56.027Z,1.60
2023-01-03T01:38:06.061Z,1.70
2023-01-03T01:38:16.150Z,1.50
2023-01-03T01:38:26.199Z,1.80
2023-01-03T01:38:36.324Z,1.70
2023-01-03T01:38:46.382Z,1.80
2023-01-03T01:38:56.467Z,1.70
2023-01-03T01:39:06.516Z,1.50
2023-01-03T01:39:16.579Z,1.50
2023-01-03T01:39:26.621Z,1.60
2023-01-03T01:39:36.699Z,1.90
2023-01-03T01:39:46.731Z,1.80
2023-01-03T01:39:56.780Z,1.90
2023-01-03T01:40:06.823Z,1.70
2023-01-03T01:40:16.861Z,1.80
2023-01-03T01:40:27.003Z,1.60
2023-01-03T01:40:37.045Z,1.70
2023-01-03T01:40:47.111Z,1.50
2023-01-03T01:40:57.162Z,1.50
2023-01-03T01:41:07.214Z,1.40
2023-01-03T01:41:17.296Z,1.50
2023-01-03T01:41:27.340Z,1.40
2023-01-03T01:41:37.394Z,1.40
2023-01-03T01:41:47.466Z,1.30
2023-01-03T01:41:57.534Z,1.40
2023-01-03T01:42:07.571Z,1.40
2023-01-03T01:42:20.336Z,1.30
2023-01-03T01:42:30.704Z,1.30
2023-01-03T01:42:38.045Z,1.40
2023-01-03T01:42:48.121Z,1.60
2023-01-03T01:42:58.179Z,1.70
2023-01-03T01:43:08.270Z,1.60
2023-01-03T01:43:18.320Z,1.70
2023-01-03T01:43:28.410Z,1.50
2023-01-03T01:43:38.499Z,1.80
2023-01-03T01:43:48.602Z,1.60
2023-01-03T01:43:58.652Z,1.70
2023-01-03T01:44:08.739Z,1.30
2023-01-03T01:44:18.772Z,1.20
2023-01-03T01:44:28.821Z,1.30
2023-01-03T01:44:38.923Z,1.60
2023-01-03T01:44:48.985Z,1.50
2023-01-03T01:44:59.088Z,1.40
2023-01-03T01:45:09.163Z,1.40
2023-01-03T01:45:19.239Z,1.60
2023-01-03T01:45:29.286Z,1.50
2023-01-03T01:45:39.394Z,1.60
2023-01-03T01:45:49.461Z,1.60
2023-01-03T01:45:59.552Z,1.50
2023-01-03T01:46:09.625Z,1.40
2023-01-03T01:46:19.725Z,1.30
2023-01-03T01:46:29.974Z,1.30
2023-01-03T01:46:39.964Z,1.30
2023-01-03T01:46:50.067Z,1.60
2023-01-03T01:47:00.062Z,1.70
2023-01-03T01:47:10.151Z,1.60
2023-01-03T01:47:20.210Z,1.50
2023-01-03T01:47:30.260Z,1.50
2023-01-03T01:47:40.323Z,1.60
2023-01-03T01:47:50.369Z,1.60
2023-01-03T01:48:00.427Z,1.50
2023-01-03T01:48:10.514Z,1.60
2023-01-03T01:48:20.565Z,1.50
2023-01-03T01:48:30.622Z,1.60
2023-01-03T01:48:40.660Z,1.90
2023-01-03T01:48:50.713Z,2.10
2023-01-03T01:49:00.813Z,1.80
2023-01-03T01:49:10.863Z,1.40
2023-01-03T01:49:20.909Z,1.30
2023-01-03T01:49:31.020Z,1.60
2023-01-03T01:49:41.080Z,1.80
2023-01-03T01:49:51.120Z,1.80
2023-01-03T01:50:01.249Z,1.70
2023-01-03T01:50:11.281Z,1.80
2023-01-03T01:50:21.406Z,1.70
2023-01-03T01:50:31.460Z,1.60
2023-01-03T01:50:41.510Z,1.50
2023-01-03T01:50:51.589Z,1.60
2023-01-03T01:51:01.638Z,1.60
2023-01-03T01:51:11.699Z,1.70
2023-01-03T01:51:21.759Z,1.60
2023-01-03T01:51:31.850Z,1.70
2023-01-03T01:51:41.909Z,1.70
2023-01-03T01:51:52.021Z,1.60
2023-01-03T01:52:02.050Z,1.40
2023-01-03T01:52:12.101Z,1.40
2023-01-03T01:52:22.140Z,1.30
2023-01-03T01:52:32.190Z,1.20
2023-01-03T01:52:42.247Z,1.10
2023-01-03T01:52:52.352Z,1.10
2023-01-03T01:53:02.409Z,1.10
2023-01-03T01:53:12.449Z,1.30
2023-01-03T01:53:22.472Z,1.20
2023-01-03T01:53:32.550Z,1.30
2023-01-03T01:53:42.600Z,1.30
2023-01-03T01:53:52.649Z,1.50
2023-01-03T01:54:02.709Z,1.80
2023-01-03T01:54:12.773Z,2.00
2023-01-03T01:54:22.870Z,1.90
2023-01-03T01:54:32.903Z,1.70
2023-01-03T01:54:42.969Z,1.50
2023-01-03T01:54:52.999Z,1.40
2023-01-03T01:55:03.049Z,1.40
2023-01-03T01:55:13.150Z,1.30
2023-01-03T01:55:23.206Z,1.70
2023-01-03T01:55:33.240Z,1.70
2023-01-03T01:55:43.362Z,2.00
2023-01-03T01:55:53.398Z,1.70
2023-01-03T01:56:03.484Z,1.50
2023-01-03T01:56:13.537Z,1.30
2023-01-03T01:56:23.591Z,1.60
2023-01-03T01:56:33.754Z,1.70
2023-01-03T01:56:43.808Z,1.80
2023-01-03T01:56:53.866Z,1.50
2023-01-03T01:57:03.928Z,1.50
2023-01-03T01:57:13.982Z,1.40
2023-01-03T01:57:24.020Z,1.50
2023-01-03T01:57:34.080Z,1.40
2023-01-03T01:57:44.121Z,1.30
2023-01-03T01:57:54.190Z,1.40
2023-01-03T01:58:04.227Z,1.50
2023-01-03T01:58:14.329Z,1.40
2023-01-03T01:58:24.383Z,1.40
2023-01-03T01:58:34.478Z,1.60
2023-01-03T01:58:44.529Z,1.60
2023-01-03T01:58:54.569Z,1.80
2023-01-03T01:59:04.625Z,1.50
2023-01-03T01:59:14.710Z,1.50
2023-01-03T01:59:24.859Z,1.30
2023-01-03T01:59:34.901Z,1.30
2023-01-03T01:59:44.956Z,1.40
2023-01-03T01:59:55.000Z,1.40
2023-01-03T02:00:05.042Z,1.40
2023-01-03T02:00:15.100Z,1.50
2023-01-03T02:00:25.191Z,1.60
2023-01-03T02:00:35.230Z,1.70
2023-01-03T02:00:45.258Z,1.60
2023-01-03T02:00:55.284Z,1.60
2023-01-03T02:01:05.401Z,1.40
2023-01-03T02:01:15.645Z,1.40
2023-01-03T02:01:25.657Z,1.30
2023-01-03T02:01:35.792Z,1.40
2023-01-03T02:01:45.973Z,1.60
2023-01-03T02:01:56.024Z,1.80
2023-01-03T02:02:06.101Z,1.50
2023-01-03T02:02:16.207Z,1.20
2023-01-03T02:02:26.260Z,1.20
2023-01-03T02:02:36.382Z,1.30
2023-01-03T02:02:46.522Z,1.60
2023-01-03T02:02:56.612Z,1.60
2023-01-03T02:03:06.589Z,1.60
2023-01-03T02:03:16.590Z,1.30
2023-01-03T02:03:26.592Z,1.30
2023-01-03T02:03:36.675Z,1.20
2023-01-03T02:03:46.743Z,1.30
2023-01-03T02:03:56.827Z,1.30
2023-01-03T02:04:06.968Z,1.40
2023-01-03T02:04:16.977Z,1.40
2023-01-03T02:04:27.075Z,1.30
2023-01-03T02:04:37.147Z,1.50
2023-01-03T02:04:47.308Z,1.50
2023-01-03T02:04:57.360Z,1.60
2023-01-03T02:05:07.434Z,1.50
2023-01-03T02:05:17.568Z,1.50
2023-01-03T02:05:27.633Z,1.50
2023-01-03T02:05:37.725Z,1.30
2023-01-03T02:05:47.799Z,1.50
2023-01-03T02:05:57.859Z,1.40
2023-01-03T02:06:07.888Z,1.40
2023-01-03T02:06:17.945Z,1.40
2023-01-03T02:06:27.993Z,1.50
2023-01-03T02:06:38.096Z,1.50
2023-01-03T02:06:48.158Z,1.50
2023-01-03T02:06:58.209Z,1.60
2023-01-03T02:07:08.272Z,1.70
2023-01-03T02:07:18.299Z,1.70
2023-01-03T02:07:28.352Z,1.60
2023-01-03T02:07:38.410Z,1.70
2023-01-03T02:07:48.510Z,2.10
2023-01-03T02:07:58.569Z,2.00
2023-01-03T02:08:08.677Z,1.80
2023-01-03T02:08:18.752Z,1.40
2023-01-03T02:08:28.779Z,1.40
2023-01-03T02:08:38.828Z,1.30
2023-01-03T02:08:48.876Z,1.30
2023-01-03T02:08:58.920Z,1.30
2023-01-03T02:09:08.960Z,1.30
2023-01-03T02:09:19.053Z,1.20
2023-01-03T02:09:29.099Z,1.20
2023-01-03T02:09:39.187Z,1.40
2023-01-03T02:09:49.264Z,1.50
2023-01-03T02:09:59.327Z,1.60
2023-01-03T02:10:09.377Z,1.60
2023-01-03T02:10:19.490Z,1.50
2023-01-03T02:10:29.548Z,1.50
2023-01-03T02:10:39.682Z,1.60
2023-01-03T02:10:49.881Z,1.70
2023-01-03T02:10:59.949Z,1.90
2023-01-03T02:11:09.990Z,1.60
2023-01-03T02:11:20.069Z,1.40
2023-01-03T02:11:30.099Z,1.20
2023-01-03T02:11:40.148Z,1.30
2023-01-03T02:11:50.197Z,1.60
2023-01-03T02:12:00.253Z,1.50
2023-01-03T02:12:10.278Z,1.50
2023-01-03T02:12:20.330Z,1.40
2023-01-03T02:12:30.437Z,1.20
2023-01-03T02:12:40.497Z,1.30
2023-01-03T02:12:50.526Z,1.40
2023-01-03T02:13:00.608Z,1.60
2023-01-03T02:13:10.666Z,1.50
2023-01-03T02:13:20.698Z,1.50
2023-01-03T02:13:30.761Z,1.40
2023-01-03T02:13:40.796Z,1.80
2023-01-03T02:13:50.833Z,1.60
2023-01-03T02:14:00.881Z,1.40